createdAt,value
2018-02-13T00:02:21.447Z,2.00
2018-02-13T00:04:49.279Z,2.02
2018-02-13T00:07:17.022Z,2.06
2018-02-13T00:09:44.721Z,2.08
2018-02-13T00:12:12.367Z,2.06
2018-02-13T00:14:40.131Z,2.05
2018-02-13T00:17:08.081Z,2.03
2018-02-13T00:19:35.782Z,2.00
2018-02-13T00:22:03.511Z,2.00
2018-02-13T00:24:31.194Z,1.98
2018-02-13T00:26:58.939Z,1.93
2018-02-13T00:29:26.769Z,1.89
2018-02-13T00:31:54.462Z,1.86
2018-02-13T00:34:22.292Z,1.82
2018-02-13T00:36:49.978Z,1.79
2018-02-13T00:39:17.723Z,1.78
2018-02-13T00:41:46.832Z,1.73
2018-02-13T00:44:14.552Z,1.70
2018-02-13T00:46:42.275Z,1.66
2018-02-13T00:49:10.074Z,1.63
2018-02-13T00:51:37.840Z,1.60
2018-02-13T00:54:05.569Z,1.64
2018-02-13T00:56:33.969Z,1.70
2018-02-13T00:59:01.758Z,1.75
2018-02-13T01:01:29.510Z,1.69
2018-02-13T01:03:57.182Z,1.67
2018-02-13T01:06:25.581Z,1.60
2018-02-13T01:08:53.327Z,1.47
2018-02-13T01:11:21.069Z,1.48
2018-02-13T01:13:48.812Z,1.38
2018-02-13T01:16:16.619Z,1.33
2018-02-13T01:18:44.403Z,1.36
2018-02-13T01:21:12.134Z,1.20
2018-02-13T01:23:39.890Z,0.96
2018-02-13T01:26:07.649Z,0.96
2018-02-13T01:28:35.386Z,0.95
2018-02-13T01:31:03.093Z,0.96
2018-02-13T01:33:30.795Z,0.95
2018-02-13T01:35:58.647Z,1.04
2018-02-13T01:38:26.352Z,1.12
2018-02-13T01:40:54.131Z,1.24
2018-02-13T01:43:21.839Z,1.26
2018-02-13T01:45:49.592Z,1.26
2018-02-13T01:48:17.293Z,1.10
2018-02-13T01:50:45.058Z,1.07
2018-02-13T01:53:12.777Z,1.01
2018-02-13T01:55:40.478Z,0.99
2018-02-13T01:58:08.556Z,1.02
2018-02-13T02:00:36.250Z,1.03
2018-02-13T02:03:04.015Z,1.04
2018-02-13T02:05:31.700Z,1.13
2018-02-13T02:07:59.477Z,1.20
2018-02-13T02:10:27.178Z,1.29
2018-02-13T02:12:54.874Z,1.26
2018-02-13T02:15:22.618Z,1.23
2018-02-13T02:17:50.303Z,1.18
2018-02-13T02:20:18.029Z,1.13
2018-02-13T02:22:45.759Z,0.98
2018-02-13T02:25:13.509Z,1.04
2018-02-13T02:27:41.215Z,1.00
2018-02-13T02:30:09.113Z,1.13
2018-02-13T02:32:36.835Z,1.15
2018-02-13T02:35:04.514Z,1.13
2018-02-13T02:37:32.255Z,1.14
2018-02-13T02:39:59.920Z,1.03
2018-02-13T02:42:49.052Z,0.99
2018-02-13T02:45:16.788Z,0.94
2018-02-13T02:47:44.612Z,1.00
2018-02-13T02:50:12.333Z,1.05
2018-02-13T02:52:40.168Z,1.12
2018-02-13T02:55:07.858Z,1.02
2018-02-13T02:57:35.590Z,0.98
2018-02-13T03:00:03.452Z,0.95
2018-02-13T03:02:31.180Z,0.89
2018-02-13T03:04:58.921Z,0.88
2018-02-13T03:07:26.711Z,0.91
2018-02-13T03:09:54.404Z,0.97
2018-02-13T03:12:22.195Z,0.96
2018-02-13T03:14:49.935Z,0.88
2018-02-13T03:17:18.227Z,0.88
2018-02-13T03:19:45.998Z,0.96
2018-02-13T03:22:13.703Z,0.97
2018-02-13T03:24:41.455Z,0.80
2018-02-13T03:27:09.249Z,0.74
2018-02-13T03:29:37.082Z,0.58
2018-02-13T03:32:04.811Z,0.53
2018-02-13T03:34:32.545Z,0.51
2018-02-13T03:37:01.008Z,0.47
2018-02-13T03:39:28.732Z,0.48
2018-02-13T03:41:56.471Z,0.44
2018-02-13T03:44:24.179Z,0.50
2018-02-13T03:46:51.943Z,0.66
2018-02-13T03:49:19.665Z,0.69
2018-02-13T03:51:47.410Z,0.65
2018-02-13T03:54:15.118Z,0.51
2018-02-13T03:56:42.913Z,0.54
2018-02-13T03:59:10.601Z,0.63
2018-02-13T04:01:38.356Z,0.55
2018-02-13T04:04:06.125Z,0.55
2018-02-13T04:06:33.845Z,0.48
2018-02-13T04:09:01.700Z,0.46
2018-02-13T04:11:29.416Z,0.51
2018-02-13T04:13:57.164Z,0.58
2018-02-13T04:16:24.901Z,0.64
2018-02-13T04:18:52.643Z,0.52
2018-02-13T04:21:20.423Z,0.42
2018-02-13T04:23:49.046Z,0.33
2018-02-13T04:26:16.769Z,0.47
2018-02-13T04:28:44.465Z,0.58
2018-02-13T04:31:12.208Z,0.61
2018-02-13T04:33:39.976Z,0.57
2018-02-13T04:36:07.735Z,0.53
2018-02-13T04:38:35.475Z,0.34
2018-02-13T04:41:03.310Z,0.28
2018-02-13T04:43:31.067Z,0.21
2018-02-13T04:45:58.890Z,0.18
2018-02-13T04:48:26.600Z,0.17
2018-02-13T04:50:54.480Z,0.24
2018-02-13T04:53:22.209Z,0.18
2018-02-13T04:55:49.993Z,0.20
2018-02-13T04:58:18.505Z,0.24
2018-02-13T05:00:46.255Z,0.28
2018-02-13T05:03:14.018Z,0.35
2018-02-13T05:05:42.123Z,0.37
2018-02-13T05:08:09.888Z,0.36
2018-02-13T05:10:37.622Z,0.32
2018-02-13T05:13:05.385Z,0.35
2018-02-13T05:15:33.110Z,0.37
2018-02-13T05:18:00.832Z,0.31
2018-02-13T05:20:28.635Z,0.26
2018-02-13T05:22:56.351Z,0.25
2018-02-13T05:25:24.177Z,0.24
2018-02-13T05:27:51.886Z,0.23
2018-02-13T05:30:19.705Z,0.20
2018-02-13T05:32:47.465Z,0.15
2018-02-13T05:35:15.285Z,0.09
2018-02-13T05:37:43.014Z,0.06
2018-02-13T05:40:10.794Z,0.09
2018-02-13T05:42:38.518Z,0.10
2018-02-13T05:45:06.249Z,0.14
2018-02-13T05:47:33.990Z,0.05
2018-02-13T05:50:01.731Z,0.08
2018-02-13T05:52:29.513Z,0.04
2018-02-13T05:54:57.232Z,-0.01
2018-02-13T05:57:25.621Z,-0.01
2018-02-13T05:59:53.332Z,0.07
2018-02-13T06:02:21.173Z,0.12
2018-02-13T06:04:48.915Z,0.05
2018-02-13T06:07:16.710Z,0.01
2018-02-13T06:09:44.488Z,0.06
2018-02-13T06:12:12.366Z,0.11
2018-02-13T06:14:40.272Z,0.05
2018-02-13T06:17:08.165Z,0.05
2018-02-13T06:19:35.959Z,0.03
2018-02-13T06:22:03.768Z,0.01
2018-02-13T06:24:31.542Z,0.04
2018-02-13T06:27:00.077Z,0.02
2018-02-13T06:29:27.787Z,0.04
2018-02-13T06:31:55.764Z,0.01
2018-02-13T06:34:23.619Z,0.02
2018-02-13T06:36:51.529Z,0.07
2018-02-13T06:39:19.579Z,0.16
2018-02-13T06:41:47.422Z,0.12
2018-02-13T06:44:15.159Z,0.08
2018-02-13T06:46:42.905Z,0.11
2018-02-13T06:49:10.758Z,0.19
2018-02-13T06:51:38.601Z,0.25
2018-02-13T06:54:06.386Z,0.21
2018-02-13T06:56:34.170Z,0.18
2018-02-13T06:59:01.927Z,0.21
2018-02-13T07:01:29.698Z,0.18
2018-02-13T07:03:57.441Z,0.09
2018-02-13T07:06:25.211Z,0.11
2018-02-13T07:08:53.013Z,0.13
2018-02-13T07:11:20.794Z,0.13
2018-02-13T07:13:48.565Z,0.17
2018-02-13T07:16:16.321Z,0.23
2018-02-13T07:18:44.050Z,0.30
2018-02-13T07:21:11.819Z,0.39
2018-02-13T07:23:39.570Z,0.48
2018-02-13T07:26:07.344Z,0.47
2018-02-13T07:28:35.091Z,0.51
2018-02-13T07:31:02.811Z,0.55
2018-02-13T07:33:30.528Z,0.58
2018-02-13T07:35:58.247Z,0.64
2018-02-13T07:38:25.971Z,0.66
2018-02-13T07:40:53.668Z,0.71
2018-02-13T07:43:21.446Z,0.76
2018-02-13T07:45:49.138Z,0.79
2018-02-13T07:48:17.278Z,0.80
2018-02-13T07:50:44.981Z,0.80
2018-02-13T07:53:12.769Z,0.84
2018-02-13T07:55:40.589Z,0.92
2018-02-13T07:58:08.302Z,0.97
2018-02-13T08:00:35.994Z,0.98
2018-02-13T08:03:03.723Z,1.01
2018-02-13T08:05:31.418Z,1.04
2018-02-13T08:07:59.148Z,1.05
2018-02-13T08:10:26.931Z,1.10
2018-02-13T08:12:54.711Z,1.11
2018-02-13T08:15:22.407Z,1.14
2018-02-13T08:17:50.188Z,1.18
2018-02-13T08:20:17.918Z,1.22
2018-02-13T08:22:45.719Z,1.28
2018-02-13T08:25:13.583Z,1.31
2018-02-13T08:27:41.397Z,1.38
2018-02-13T08:30:09.078Z,1.41
2018-02-13T08:32:36.831Z,1.43
2018-02-13T08:35:04.581Z,1.48
2018-02-13T08:37:32.299Z,1.49
2018-02-13T08:40:00.066Z,1.48
2018-02-13T08:42:27.840Z,1.52
2018-02-13T08:44:55.585Z,1.57
2018-02-13T08:47:23.308Z,1.59
2018-02-13T08:49:51.015Z,1.61
2018-02-13T08:52:18.760Z,1.68
2018-02-13T08:54:46.495Z,1.73
2018-02-13T08:57:14.306Z,1.78
2018-02-13T08:59:42.038Z,1.85
2018-02-13T09:02:09.763Z,1.94
2018-02-13T09:04:37.477Z,1.98
2018-02-13T09:07:05.191Z,2.01
2018-02-13T09:09:32.961Z,2.07
2018-02-13T09:12:00.767Z,2.12
2018-02-13T09:14:28.467Z,2.13
2018-02-13T09:16:56.227Z,2.17
2018-02-13T09:19:24.038Z,2.24
2018-02-13T09:21:51.767Z,2.31
2018-02-13T09:24:19.545Z,2.36
2018-02-13T09:26:47.277Z,2.44
2018-02-13T09:29:14.991Z,2.51
2018-02-13T09:31:42.783Z,2.62
2018-02-13T09:34:10.480Z,2.69
2018-02-13T09:36:38.225Z,2.75
2018-02-13T09:39:05.955Z,2.79
2018-02-13T09:41:33.706Z,2.82
2018-02-13T09:44:01.423Z,2.88
2018-02-13T09:46:29.144Z,2.99
2018-02-13T09:48:56.860Z,3.08
2018-02-13T09:51:24.659Z,3.18
2018-02-13T09:53:52.359Z,3.28
2018-02-13T09:56:20.111Z,3.34
2018-02-13T09:58:47.841Z,3.43
2018-02-13T10:01:15.645Z,3.53
2018-02-13T10:03:43.364Z,3.61
2018-02-13T10:06:11.140Z,3.72
2018-02-13T10:08:38.882Z,3.82
2018-02-13T10:11:06.602Z,3.89
2018-02-13T10:13:34.283Z,3.95
2018-02-13T10:16:01.998Z,4.02
2018-02-13T10:18:29.615Z,4.12
2018-02-13T10:20:57.326Z,4.34
2018-02-13T10:23:25.017Z,4.47
2018-02-13T10:25:52.743Z,4.58
2018-02-13T10:28:20.448Z,4.65
2018-02-13T10:30:48.186Z,4.79
2018-02-13T10:33:15.818Z,4.88
2018-02-13T10:35:43.498Z,4.96
2018-02-13T10:38:11.178Z,5.17
2018-02-13T10:40:38.776Z,5.29
2018-02-13T10:43:06.553Z,5.40
2018-02-13T10:45:34.156Z,5.52
2018-02-13T10:48:01.828Z,5.70
2018-02-13T10:50:29.423Z,5.87
2018-02-13T10:52:57.054Z,5.94
2018-02-13T10:55:24.765Z,5.94
2018-02-13T10:57:52.399Z,6.05
2018-02-13T11:00:20.001Z,5.98
2018-02-13T11:02:47.761Z,6.12
2018-02-13T11:05:15.364Z,6.14
2018-02-13T11:07:43.019Z,6.24
2018-02-13T11:10:10.634Z,6.06
2018-02-13T11:12:38.264Z,6.40
2018-02-13T11:15:05.885Z,6.19
2018-02-13T11:17:33.547Z,6.15
2018-02-13T11:20:01.210Z,6.38
2018-02-13T11:22:28.844Z,6.74
2018-02-13T11:24:56.523Z,6.96
2018-02-13T11:27:24.114Z,7.16
2018-02-13T11:29:51.806Z,7.08
2018-02-13T11:32:19.457Z,7.18
2018-02-13T11:34:47.127Z,7.21
2018-02-13T11:37:14.763Z,7.16
2018-02-13T11:39:42.438Z,7.40
2018-02-13T11:42:10.049Z,7.60
2018-02-13T11:44:37.695Z,7.52
2018-02-13T11:47:05.295Z,7.19
2018-02-13T11:49:32.908Z,6.89
2018-02-13T11:52:00.623Z,6.47
2018-02-13T11:54:28.234Z,6.33
2018-02-13T11:56:55.879Z,6.77
2018-02-13T11:59:23.462Z,7.39
2018-02-13T12:01:51.124Z,7.26
2018-02-13T12:04:18.745Z,7.70
2018-02-13T12:06:47.135Z,7.23
2018-02-13T12:09:14.759Z,6.87
2018-02-13T12:11:42.418Z,6.72
2018-02-13T12:14:10.078Z,6.97
2018-02-13T12:16:37.703Z,7.26
2018-02-13T12:19:05.346Z,7.43
2018-02-13T12:21:32.947Z,7.39
2018-02-13T12:24:00.547Z,6.82
2018-02-13T12:26:28.361Z,7.23
2018-02-13T12:28:56.006Z,7.27
2018-02-13T12:31:23.711Z,7.16
2018-02-13T12:33:51.326Z,7.54
2018-02-13T12:36:18.971Z,7.30
2018-02-13T12:38:46.630Z,7.14
2018-02-13T12:41:14.291Z,6.84
2018-02-13T12:43:41.921Z,6.69
2018-02-13T12:46:10.178Z,6.54
2018-02-13T12:48:37.796Z,6.44
2018-02-13T12:51:05.411Z,6.32
2018-02-13T12:53:33.068Z,6.83
2018-02-13T12:56:00.649Z,7.45
2018-02-13T12:58:28.298Z,7.24
2018-02-13T13:00:55.894Z,7.01
2018-02-13T13:03:23.532Z,7.56
2018-02-13T13:05:51.187Z,7.89
2018-02-13T13:08:18.849Z,8.18
2018-02-13T13:10:46.480Z,8.19
2018-02-13T13:13:14.122Z,8.48
2018-02-13T13:15:41.746Z,8.46
2018-02-13T13:18:09.381Z,8.02
2018-02-13T13:20:37.051Z,8.05
2018-02-13T13:23:04.669Z,8.45
2018-02-13T13:25:32.282Z,8.76
2018-02-13T13:27:59.914Z,8.58
2018-02-13T13:30:27.526Z,8.59
2018-02-13T13:32:55.161Z,8.42
2018-02-13T13:35:22.771Z,8.61
2018-02-13T13:37:50.469Z,8.13
2018-02-13T13:40:18.130Z,7.59
2018-02-13T13:42:45.811Z,7.35
2018-02-13T13:45:13.428Z,7.30
2018-02-13T13:47:41.094Z,7.19
2018-02-13T13:50:08.712Z,7.15
2018-02-13T13:52:36.536Z,7.65
2018-02-13T13:55:04.164Z,7.75
2018-02-13T13:57:31.762Z,7.68
2018-02-13T13:59:59.406Z,7.73
2018-02-13T14:02:27.074Z,7.24
2018-02-13T14:04:54.770Z,6.90
2018-02-13T14:07:22.519Z,6.61
2018-02-13T14:09:50.222Z,6.56
2018-02-13T14:12:17.842Z,6.53
2018-02-13T14:14:45.498Z,6.70
2018-02-13T14:17:13.706Z,7.00
2018-02-13T14:19:42.075Z,6.96
2018-02-13T14:22:09.734Z,6.79
2018-02-13T14:24:37.432Z,6.65
2018-02-13T14:27:05.071Z,6.82
2018-02-13T14:29:32.776Z,6.76
2018-02-13T14:32:00.401Z,6.71
2018-02-13T14:34:28.046Z,6.86
2018-02-13T14:36:55.712Z,6.83
2018-02-13T14:39:23.408Z,6.84
2018-02-13T14:41:51.114Z,6.78
2018-02-13T14:44:18.775Z,6.76
2018-02-13T14:46:46.374Z,6.71
2018-02-13T14:49:14.019Z,6.55
2018-02-13T14:51:41.628Z,6.72
2018-02-13T14:54:09.263Z,7.03
2018-02-13T14:56:36.866Z,7.25
2018-02-13T14:59:04.543Z,7.30
2018-02-13T15:01:32.138Z,7.43
2018-02-13T15:03:59.875Z,7.37
2018-02-13T15:06:27.531Z,7.30
2018-02-13T15:08:55.184Z,7.51
2018-02-13T15:11:22.789Z,7.56
2018-02-13T15:13:50.547Z,7.65
2018-02-13T15:16:18.237Z,7.44
2018-02-13T15:18:45.902Z,7.49
2018-02-13T15:21:13.487Z,7.37
2018-02-13T15:23:41.149Z,7.33
2018-02-13T15:26:08.790Z,7.26
2018-02-13T15:28:36.442Z,7.31
2018-02-13T15:31:04.072Z,7.41
2018-02-13T15:33:31.703Z,7.21
2018-02-13T15:35:59.318Z,7.09
2018-02-13T15:38:26.967Z,7.00
2018-02-13T15:40:54.654Z,6.98
2018-02-13T15:43:22.292Z,7.08
2018-02-13T15:45:49.889Z,6.99
2018-02-13T15:48:17.584Z,7.02
2018-02-13T15:50:45.222Z,6.97
2018-02-13T15:53:12.855Z,6.88
2018-02-13T15:55:40.515Z,6.94
2018-02-13T15:58:08.190Z,6.81
2018-02-13T16:00:35.823Z,6.70
2018-02-13T16:03:03.435Z,6.60
2018-02-13T16:05:31.122Z,6.57
2018-02-13T16:07:58.809Z,6.65
2018-02-13T16:10:26.501Z,6.55
2018-02-13T16:12:54.115Z,6.28
2018-02-13T16:15:21.761Z,6.24
2018-02-13T16:17:49.382Z,6.17
2018-02-13T16:20:17.175Z,6.01
2018-02-13T16:22:44.782Z,5.94
2018-02-13T16:25:12.414Z,5.84
2018-02-13T16:27:40.015Z,5.80
2018-02-13T16:30:07.666Z,5.73
2018-02-13T16:32:36.137Z,5.67
2018-02-13T16:35:03.760Z,5.60
2018-02-13T16:37:31.358Z,5.55
2018-02-13T16:39:59.250Z,5.45
2018-02-13T16:42:26.891Z,5.43
2018-02-13T16:44:54.595Z,5.39
2018-02-13T16:47:22.299Z,5.35
2018-02-13T16:49:49.978Z,5.29
2018-02-13T16:52:17.606Z,5.20
2018-02-13T16:54:45.386Z,5.17
2018-02-13T16:57:13.389Z,5.10
2018-02-13T16:59:41.179Z,5.04
2018-02-13T17:02:08.847Z,5.06
2018-02-13T17:04:36.472Z,5.03
2018-02-13T17:07:04.153Z,5.00
2018-02-13T17:09:32.518Z,4.96
2018-02-13T17:12:00.182Z,4.92
2018-02-13T17:14:27.796Z,4.88
2018-02-13T17:16:55.446Z,4.86
2018-02-13T17:19:23.110Z,4.80
2018-02-13T17:21:50.759Z,4.84
2018-02-13T17:24:18.836Z,4.77
2018-02-13T17:26:46.497Z,4.68
2018-02-13T17:29:14.103Z,4.65
2018-02-13T17:31:41.762Z,4.67
2018-02-13T17:34:09.366Z,4.63
2018-02-13T17:36:37.047Z,4.56
2018-02-13T17:39:04.673Z,4.54
2018-02-13T17:41:32.296Z,4.51
2018-02-13T17:43:59.984Z,4.46
2018-02-13T17:46:27.571Z,4.41
2018-02-13T17:48:55.210Z,4.51
2018-02-13T17:51:22.851Z,4.47
2018-02-13T17:53:50.498Z,4.44
2018-02-13T17:56:18.122Z,4.39
2018-02-13T17:58:45.799Z,4.28
2018-02-13T18:01:13.418Z,4.28
2018-02-13T18:03:41.114Z,4.26
2018-02-13T18:06:08.775Z,4.22
2018-02-13T18:08:36.518Z,4.17
2018-02-13T18:11:04.121Z,4.17
2018-02-13T18:13:31.892Z,4.15
2018-02-13T18:15:59.518Z,4.09
2018-02-13T18:18:27.811Z,4.04
2018-02-13T18:20:55.441Z,4.02
2018-02-13T18:23:23.079Z,4.02
2018-02-13T18:25:50.725Z,3.98
2018-02-13T18:28:18.671Z,3.96
2018-02-13T18:30:46.263Z,3.88
2018-02-13T18:33:13.944Z,3.86
2018-02-13T18:35:41.700Z,3.83
2018-02-13T18:38:09.438Z,3.76
2018-02-13T18:40:37.209Z,3.72
2018-02-13T18:43:05.026Z,3.65
2018-02-13T18:45:32.680Z,3.62
2018-02-13T18:48:00.331Z,3.63
2018-02-13T18:50:28.036Z,3.56
2018-02-13T18:55:23.410Z,3.52
2018-02-13T18:57:51.129Z,3.50
2018-02-13T19:00:18.809Z,3.49
2018-02-13T19:02:46.518Z,3.49
2018-02-13T19:05:14.734Z,3.44
2018-02-13T19:07:42.458Z,3.35
2018-02-13T19:10:10.131Z,3.39
2018-02-13T19:12:37.854Z,3.37
2018-02-13T19:15:05.529Z,3.45
2018-02-13T19:17:33.278Z,3.52
2018-02-13T19:20:01.022Z,3.44
2018-02-13T19:22:28.778Z,3.44
2018-02-13T19:24:56.465Z,3.35
2018-02-13T19:27:24.098Z,3.33
2018-02-13T19:29:51.811Z,3.31
2018-02-13T19:32:19.518Z,3.33
2018-02-13T19:34:47.253Z,3.25
2018-02-13T19:37:14.966Z,3.19
2018-02-13T19:39:42.675Z,3.22
2018-02-13T19:42:10.416Z,3.17
2018-02-13T19:44:38.255Z,3.20
2018-02-13T19:47:06.011Z,3.08
2018-02-13T19:49:33.714Z,3.13
2018-02-13T19:52:01.489Z,3.07
2018-02-13T19:54:29.163Z,3.07
2018-02-13T19:56:56.938Z,3.07
2018-02-13T19:59:24.640Z,3.11
2018-02-13T20:01:52.467Z,3.13
2018-02-13T20:04:20.124Z,3.07
2018-02-13T20:06:47.900Z,2.99
2018-02-13T20:09:15.589Z,3.11
2018-02-13T20:11:43.313Z,3.15
2018-02-13T20:14:11.236Z,3.07
2018-02-13T20:16:38.989Z,3.01
2018-02-13T20:19:06.684Z,2.97
2018-02-13T20:21:34.588Z,2.93
2018-02-13T20:24:02.268Z,2.89
2018-02-13T20:26:29.999Z,2.92
2018-02-13T20:28:57.686Z,2.92
2018-02-13T20:31:25.404Z,2.84
2018-02-13T20:33:53.071Z,2.85
2018-02-13T20:36:20.786Z,2.91
2018-02-13T20:38:48.502Z,2.88
2018-02-13T20:41:16.187Z,2.80
2018-02-13T20:43:43.925Z,2.76
2018-02-13T20:46:11.702Z,2.67
2018-02-13T20:48:39.454Z,2.66
2018-02-13T20:51:07.102Z,2.75
2018-02-13T20:53:34.974Z,2.73
2018-02-13T20:56:02.659Z,2.73
2018-02-13T20:58:30.364Z,2.74
2018-02-13T21:00:58.053Z,2.72
2018-02-13T21:03:25.779Z,2.64
2018-02-13T21:05:53.445Z,2.65
2018-02-13T21:08:21.165Z,2.58
2018-02-13T21:10:48.841Z,2.57
2018-02-13T21:13:16.710Z,2.53
2018-02-13T21:15:44.437Z,2.54
2018-02-13T21:18:12.124Z,2.46
2018-02-13T21:20:39.977Z,2.52
2018-02-13T21:23:07.670Z,2.50
2018-02-13T21:25:35.375Z,2.54
2018-02-13T21:28:03.090Z,2.54
2018-02-13T21:30:30.753Z,2.53
2018-02-13T21:32:58.629Z,2.46
2018-02-13T21:35:26.336Z,2.46
2018-02-13T21:37:54.063Z,2.45
2018-02-13T21:40:21.726Z,2.45
2018-02-13T21:42:49.422Z,2.49
2018-02-13T21:45:17.115Z,2.55
2018-02-13T21:47:44.793Z,2.57
2018-02-13T21:50:12.478Z,2.46
2018-02-13T21:52:40.165Z,2.46
2018-02-13T21:55:07.829Z,2.42
2018-02-13T21:57:35.562Z,2.38
2018-02-13T22:00:03.236Z,2.33
2018-02-13T22:02:30.983Z,2.37
2018-02-13T22:04:58.676Z,2.38
2018-02-13T22:07:26.335Z,2.34
2018-02-13T22:09:54.030Z,2.32
2018-02-13T22:12:21.702Z,2.29
2018-02-13T22:14:49.411Z,2.30
2018-02-13T22:17:17.162Z,2.22
2018-02-13T22:19:44.929Z,2.08
2018-02-13T22:22:12.609Z,2.01
2018-02-13T22:24:40.378Z,2.02
2018-02-13T22:27:08.046Z,2.05
2018-02-13T22:29:35.745Z,2.08
2018-02-13T22:32:03.398Z,1.96
2018-02-13T22:34:31.095Z,1.95
2018-02-13T22:36:58.779Z,1.94
2018-02-13T22:39:26.525Z,1.94
2018-02-13T22:41:54.188Z,1.83
2018-02-13T22:44:21.885Z,1.86
2018-02-13T22:46:49.546Z,1.85
2018-02-13T22:49:17.243Z,1.79
2018-02-13T22:51:44.928Z,1.77
2018-02-13T22:54:12.625Z,1.77
2018-02-13T22:56:40.301Z,1.75
2018-02-13T22:59:08.001Z,1.78
2018-02-13T23:01:35.669Z,1.75
2018-02-13T23:04:03.361Z,1.72
2018-02-13T23:06:31.041Z,1.69
2018-02-13T23:08:58.754Z,1.72
2018-02-13T23:11:26.466Z,1.73
2018-02-13T23:13:54.137Z,1.71
2018-02-13T23:16:21.826Z,1.66
2018-02-13T23:18:49.498Z,1.56
2018-02-13T23:21:17.192Z,1.51
2018-02-13T23:23:44.854Z,1.57
2018-02-13T23:26:12.539Z,1.49
2018-02-13T23:28:40.246Z,1.49
2018-02-13T23:31:07.935Z,1.54
2018-02-13T23:33:35.629Z,1.60
2018-02-13T23:36:03.338Z,1.58
2018-02-13T23:38:31.006Z,1.48
2018-02-13T23:40:58.726Z,1.45
2018-02-13T23:43:26.389Z,1.45
2018-02-13T23:45:54.079Z,1.47
2018-02-13T23:48:21.738Z,1.44
2018-02-13T23:50:49.443Z,1.45
2018-02-13T23:53:17.131Z,1.52
2018-02-13T23:55:44.778Z,1.52
2018-02-13T23:58:12.469Z,1.47
